createdAt,value
2022-09-09T00:13:00.331Z,14.863287128971571
2022-09-09T00:22:19.132Z,14.826001384824417
2022-09-09T00:28:52.137Z,14.797515807901338
2022-09-09T00:35:17.529Z,14.736362092391303
2022-09-09T00:48:07.130Z,14.675205110785951
2022-09-09T00:54:32.726Z,14.608475517349497
2022-09-09T01:07:27.088Z,14.65323343436455
2022-09-09T01:13:52.407Z,14.691909228678929
2022-09-09T01:20:17.359Z,14.67647758152174
2022-09-09T01:26:51.209Z,14.56531537416388
2022-09-09T01:33:16.502Z,14.567035953177257
2022-09-09T01:39:40.935Z,14.524802074623745
2022-09-09T01:46:31.625Z,14.505531459030102
2022-09-09T02:00:09.741Z,14.441081600125417
2022-09-09T02:06:34.781Z,14.356118702968228
2022-09-09T02:12:59.502Z,14.346249216137124
2022-09-09T02:30:32.831Z,14.232692307692307
2022-09-09T02:37:02.590Z,14.195799148202342
2022-09-09T02:43:27.429Z,14.195605795359532
2022-09-09T02:49:52.633Z,14.117306385869563
2022-09-09T03:00:43.972Z,14.080235550794315
2022-09-09T03:07:09.108Z,14.028411109949833
2022-09-09T03:13:33.754Z,13.97059273097826
2022-09-09T03:19:58.405Z,13.917892323369564
2022-09-09T03:26:26.501Z,13.938270145275922
2022-09-09T03:32:52.114Z,14.00478482964047
2022-09-09T03:42:42.026Z,13.925702210493313
2022-09-09T03:49:07.282Z,13.987166858277591
2022-09-09T03:55:31.910Z,14.026102633779264
2022-09-09T04:01:57.506Z,14.037850125418062
2022-09-09T04:08:22.510Z,14.005475935409697
2022-09-09T04:22:24.509Z,14.050403036162209
2022-09-09T04:31:26.194Z,14.082813153219064
2022-09-09T04:37:54.582Z,14.064397601379598
2022-09-09T04:44:32.919Z,14.102842809364548
2022-09-09T04:51:37.515Z,14.158205737876253
2022-09-09T04:58:11.176Z,14.176294680183943
2022-09-09T05:04:38.017Z,14.168296665969901
2022-09-09T05:11:02.906Z,14.220295516304345
2022-09-09T05:21:57.225Z,14.069576975334451
2022-09-09T05:30:37.057Z,14.058809965510031
2022-09-09T05:40:04.909Z,14.11397039611204
2022-09-09T05:46:32.877Z,14.149136444397993
2022-09-09T05:53:00.159Z,14.14255983486622
2022-09-09T05:59:25.963Z,14.173537442516722
2022-09-09T06:05:53.146Z,14.128552205267557
2022-09-09T06:12:28.823Z,14.21979123118729
2022-09-09T06:18:54.922Z,14.228055758779261
2022-09-09T06:25:33.549Z,14.296259014423079
2022-09-09T06:31:58.979Z,14.441009746028428
2022-09-09T06:38:25.523Z,14.63498118729097
2022-09-09T06:44:54.734Z,14.689897967182274
2022-09-09T06:51:26.293Z,14.664222538670568
2022-09-09T06:57:59.882Z,14.707374190008359
2022-09-09T07:04:28.702Z,14.846444528637123
2022-09-09T07:11:01.248Z,15.049222669314384
2022-09-09T07:17:34.130Z,15.23769335284281
2022-09-09T07:26:36.630Z,15.657231788252506
2022-09-09T07:33:04.233Z,15.898691602215719
2022-09-09T07:39:29.775Z,16.142909307065217
2022-09-09T07:50:58.950Z,17.39292563754181
2022-09-09T07:57:24.992Z,17.33096976902172
2022-09-09T08:03:56.459Z,17.13508047658863
2022-09-09T08:10:18.608Z,17.313467417433117
2022-09-09T08:16:40.924Z,17.303605769230778
2022-09-09T08:23:04.961Z,17.32871355037623
2022-09-09T08:31:56.071Z,17.49156106291805
2022-09-09T08:38:17.453Z,17.352654029055206
2022-09-09T08:56:25.861Z,17.557529002926426
2022-09-09T09:03:09.817Z,17.584363242056856
2022-09-09T09:09:31.518Z,17.712125705476602
2022-09-09T09:15:53.205Z,17.791218776128762
2022-09-09T09:22:15.181Z,17.638692124790982
2022-09-09T09:28:45.621Z,17.750052910744134
2022-09-09T09:40:03.068Z,18.2761829797241
2022-09-09T09:46:24.863Z,18.438076139214065
2022-09-09T09:52:47.773Z,18.1822683685201
2022-09-09T09:59:18.042Z,18.0369891826923
2022-09-09T10:06:55.958Z,18.04159111099499
2022-09-09T10:13:17.803Z,18.133813884824434
2022-09-09T10:19:39.502Z,18.105703255643814
2022-09-09T10:27:34.832Z,18.325366455894677
2022-09-09T10:39:45.606Z,18.556102372491644
2022-09-09T10:46:07.307Z,18.522014788879627
2022-09-09T10:52:29.489Z,18.627333298494985
2022-09-09T11:03:24.506Z,18.696566027382904
2022-09-09T11:10:21.945Z,18.987535927048526
2022-09-09T11:16:45.081Z,19.292274378135474
2022-09-09T11:23:06.591Z,19.193917877299327
2022-09-09T11:29:34.680Z,19.10993938127088
2022-09-09T11:40:29.870Z,19.44377155622909
2022-09-09T11:46:52.045Z,19.133797554347865
2022-09-09T11:53:14.365Z,18.865444711538423
2022-09-09T11:59:36.546Z,18.544810827759214
2022-09-09T12:05:58.669Z,18.380010843436423
2022-09-09T12:15:38.988Z,18.084738189799307
2022-09-09T12:22:02.364Z,17.833826295986622
2022-09-09T12:28:27.825Z,17.659389370819397
2022-09-09T12:39:51.178Z,17.452094220317726
2022-09-09T12:46:16.892Z,17.39243768290134
2022-09-09T12:52:43.977Z,17.33995936977425
2022-09-09T12:59:10.021Z,17.3435546875
2022-09-09T13:05:35.558Z,17.35705019335284
2022-09-09T13:12:00.734Z,17.385987797867894
2022-09-09T13:18:26.081Z,17.487888012123747
2022-09-09T13:24:51.347Z,17.66360002090301
2022-09-09T13:31:16.880Z,17.77732154055184
2022-09-09T13:41:30.590Z,17.904519622700665
2022-09-09T13:47:53.402Z,17.872874425167215
2022-09-09T13:54:16.424Z,17.907755669941473
2022-09-09T14:00:41.998Z,17.914587688127092
2022-09-09T14:07:04.846Z,17.78191758988296
2022-09-09T14:13:26.715Z,17.664871838419742
2022-09-09T14:19:51.220Z,17.54280544523409
2022-09-09T14:26:16.960Z,17.35266513377926
2022-09-09T14:45:46.325Z,17.093317568979934
2022-09-09T14:58:20.004Z,17.06051552048495
2022-09-09T15:04:45.886Z,17.017442255434784
2022-09-09T15:11:10.811Z,16.961017845944816
2022-09-09T15:17:36.535Z,16.90647993311037
2022-09-09T15:24:02.952Z,16.903503867056855
2022-09-09T15:31:45.832Z,16.848246760033444
2022-09-09T15:38:11.168Z,16.84111491429766
2022-09-09T15:44:36.246Z,16.826374372909697
2022-09-09T15:51:01.477Z,16.74263560827759
2022-09-09T15:57:36.532Z,16.690551839464884
2022-09-09T16:04:02.827Z,16.6491148881689
2022-09-09T16:10:28.593Z,16.65317660430602
2022-09-09T16:16:54.509Z,16.722563492892977
2022-09-09T16:32:40.781Z,16.58960271216555
2022-09-09T16:39:06.498Z,16.525484035326087
2022-09-09T16:45:31.965Z,16.45564577236622
2022-09-09T16:52:46.014Z,16.42072533444816
2022-09-09T17:09:12.542Z,16.30243846676421
2022-09-09T17:15:38.067Z,16.181492997491638
2022-09-09T17:22:16.925Z,15.978141330476587
2022-09-09T17:37:18.237Z,15.380937108068558
2022-09-09T17:43:43.523Z,15.120203412416386
2022-09-09T17:50:08.664Z,15.14947873118729
2022-09-09T17:56:34.848Z,15.123945051212374
2022-09-09T18:09:51.078Z,15.095377821906355
2022-09-09T18:16:17.125Z,15.088218540969898
2022-09-09T18:22:43.313Z,15.042472303511706
2022-09-09T18:29:08.746Z,15.012439250627093
2022-09-09T18:39:05.319Z,14.99499372909699
2022-09-09T18:49:59.118Z,15.033977842809366
2022-09-09T19:01:00.909Z,15.007333690426423
2022-09-09T19:07:25.867Z,14.990678563963211
2022-09-09T19:13:51.441Z,15.009462531354513
2022-09-09T19:20:17.009Z,15.002524691680602
2022-09-09T19:26:42.013Z,14.974813179347827
2022-09-09T19:37:49.947Z,14.91930654264214
2022-09-09T19:44:19.385Z,14.936997674540134
2022-09-09T19:50:54.001Z,14.890296430811038
2022-09-09T19:57:28.036Z,14.847876384824415
2022-09-09T20:03:57.405Z,14.820351039924748
2022-09-09T20:21:33.329Z,14.687659385451504
2022-09-09T20:28:12.125Z,14.662770432692305
2022-09-09T20:35:34.464Z,14.667160718018394
2022-09-09T20:47:25.600Z,14.670910848662206
2022-09-09T20:53:56.460Z,14.612535927048498
2022-09-09T21:00:25.034Z,14.572163069607022
2022-09-09T21:07:01.810Z,14.559407660953175
2022-09-09T21:19:39.595Z,14.612748223244147
2022-09-09T21:26:24.769Z,14.648128527382944
2022-09-09T21:33:00.247Z,14.61598818979933
2022-09-09T21:39:33.693Z,14.59802858486622
2022-09-09T21:46:10.403Z,14.542094742892978
2022-09-09T21:52:56.098Z,14.463921404682276
2022-09-09T22:01:46.345Z,14.513066340928093
2022-09-09T22:08:12.461Z,14.562000287416389
2022-09-09T22:19:53.859Z,14.503630591555183
2022-09-09T22:32:13.077Z,14.56710454117893
2022-09-09T22:39:52.035Z,14.53415029264214
2022-09-09T22:46:17.535Z,14.564838524247492
2022-09-09T22:53:15.195Z,14.572137594063545
2022-09-09T22:59:40.502Z,14.625739443979935
2022-09-09T23:30:16.295Z,14.526316236413045
2022-09-09T23:41:25.095Z,14.47744695861204
2022-09-09T23:47:50.133Z,14.514163095735787
2022-09-09T23:57:13.829Z,14.546591502926422
